createdAt,value
2023-02-21T00:01:15.594Z,11.34
2023-02-21T00:04:01.913Z,11.35
2023-02-21T00:06:47.491Z,11.45
2023-02-21T00:09:33.884Z,11.49
2023-02-21T00:12:19.430Z,11.30
2023-02-21T00:15:05.397Z,11.70
2023-02-21T00:17:51.167Z,11.87
2023-02-21T00:20:37.258Z,11.55
2023-02-21T00:23:22.839Z,11.19
2023-02-21T00:26:09.136Z,11.06
2023-02-21T00:28:54.675Z,10.72
2023-02-21T00:31:41.446Z,11.15
2023-02-21T00:34:27.034Z,10.81
2023-02-21T00:37:13.261Z,11.26
2023-02-21T00:39:59.287Z,10.91
2023-02-21T00:42:48.503Z,10.93
2023-02-21T00:45:34.383Z,11.03
2023-02-21T00:48:20.560Z,10.88
2023-02-21T00:51:06.257Z,11.11
2023-02-21T00:53:52.395Z,11.18
2023-02-21T00:56:38.116Z,11.24
2023-02-21T00:59:24.405Z,11.05
2023-02-21T01:02:10.335Z,11.33
2023-02-21T01:04:56.618Z,11.46
2023-02-21T01:07:42.305Z,11.86
2023-02-21T01:10:28.542Z,11.94
2023-02-21T01:13:14.523Z,11.96
2023-02-21T01:16:00.820Z,12.02
2023-02-21T01:18:46.843Z,11.99
2023-02-21T01:21:33.474Z,11.70
2023-02-21T01:24:19.376Z,11.75
2023-02-21T01:27:05.581Z,11.53
2023-02-21T01:29:51.220Z,12.45
2023-02-21T01:32:37.517Z,12.68
2023-02-21T01:35:24.228Z,12.37
2023-02-21T01:38:10.407Z,12.45
2023-02-21T01:40:57.817Z,12.73
2023-02-21T01:43:45.282Z,11.95
2023-02-21T01:46:31.749Z,12.10
2023-02-21T01:49:18.305Z,11.91
2023-02-21T01:52:04.270Z,11.95
2023-02-21T01:54:51.135Z,11.97
2023-02-21T01:57:37.114Z,11.75
2023-02-21T02:00:25.167Z,11.91
2023-02-21T02:03:15.644Z,11.68
2023-02-21T02:06:02.568Z,11.80
2023-02-21T02:08:49.264Z,11.94
2023-02-21T02:11:47.498Z,11.80
2023-02-21T02:14:15.153Z,11.42
2023-02-21T02:16:54.984Z,11.61
2023-02-21T02:19:34.439Z,11.52
2023-02-21T02:22:14.514Z,11.59
2023-02-21T02:24:41.681Z,11.70
2023-02-21T02:27:10.806Z,11.55
2023-02-21T02:29:46.887Z,11.64
2023-02-21T02:32:27.166Z,11.72
2023-02-21T02:35:00.318Z,11.54
2023-02-21T02:37:33.668Z,11.43
2023-02-21T02:40:09.758Z,11.34
2023-02-21T02:42:59.578Z,11.23
2023-02-21T02:45:46.960Z,11.04
2023-02-21T02:48:21.014Z,11.11
2023-02-21T02:50:48.733Z,11.01
2023-02-21T02:53:17.163Z,10.99
2023-02-21T02:55:49.030Z,10.91
2023-02-21T02:58:17.069Z,11.17
2023-02-21T03:00:45.966Z,11.38
2023-02-21T03:03:13.130Z,11.30
2023-02-21T03:05:46.952Z,11.55
2023-02-21T03:08:23.266Z,11.08
2023-02-21T03:10:55.964Z,11.15
2023-02-21T03:13:31.376Z,10.81
2023-02-21T03:16:19.350Z,10.92
2023-02-21T03:18:48.411Z,10.52
2023-02-21T03:21:18.145Z,10.47
2023-02-21T03:23:45.435Z,10.66
2023-02-21T03:26:12.591Z,10.41
2023-02-21T03:28:40.735Z,10.78
2023-02-21T03:31:08.424Z,10.72
2023-02-21T03:33:36.142Z,10.68
2023-02-21T03:36:06.728Z,11.01
2023-02-21T03:38:35.718Z,11.11
2023-02-21T03:41:02.962Z,10.99
2023-02-21T03:43:30.586Z,11.31
2023-02-21T03:45:58.368Z,11.61
2023-02-21T03:48:31.821Z,11.63
2023-02-21T03:51:00.470Z,11.76
2023-02-21T03:53:28.198Z,12.11
2023-02-21T03:55:55.388Z,12.34
2023-02-21T03:58:23.713Z,11.80
2023-02-21T04:00:51.759Z,11.89
2023-02-21T04:03:19.387Z,12.46
2023-02-21T04:05:47.224Z,11.91
2023-02-21T04:08:14.598Z,12.01
2023-02-21T04:10:51.750Z,12.00
2023-02-21T04:13:20.249Z,11.84
2023-02-21T04:15:48.166Z,11.76
2023-02-21T04:18:15.349Z,11.53
2023-02-21T04:20:42.736Z,11.60
2023-02-21T04:23:11.304Z,11.72
2023-02-21T04:25:38.443Z,11.93
2023-02-21T04:28:06.757Z,11.96
2023-02-21T04:30:34.611Z,12.06
2023-02-21T04:33:03.654Z,11.89
2023-02-21T04:35:31.168Z,11.78
2023-02-21T04:37:59.442Z,11.99
2023-02-21T04:40:26.617Z,12.02
2023-02-21T04:42:53.830Z,12.22
2023-02-21T04:45:21.290Z,11.93
2023-02-21T04:47:48.475Z,12.34
2023-02-21T04:50:15.729Z,12.35
2023-02-21T04:52:43.191Z,12.38
2023-02-21T04:55:10.321Z,11.94
2023-02-21T04:57:37.486Z,11.91
2023-02-21T05:00:07.430Z,11.83
2023-02-21T05:02:34.589Z,11.72
2023-02-21T05:05:02.025Z,11.60
2023-02-21T05:07:30.758Z,11.93
2023-02-21T05:09:57.915Z,11.90
2023-02-21T05:12:25.081Z,11.52
2023-02-21T05:14:53.092Z,11.76
2023-02-21T05:17:20.269Z,11.77
2023-02-21T05:19:47.453Z,11.43
2023-02-21T05:22:20.361Z,11.64
2023-02-21T05:24:49.057Z,11.99
2023-02-21T05:27:17.511Z,12.16
2023-02-21T05:29:48.618Z,11.84
2023-02-21T05:32:16.877Z,12.10
2023-02-21T05:34:46.857Z,12.38
2023-02-21T05:37:14.501Z,12.55
2023-02-21T05:39:44.618Z,12.20
2023-02-21T05:42:14.335Z,11.91
2023-02-21T05:44:43.453Z,12.00
2023-02-21T05:47:11.247Z,11.95
2023-02-21T05:49:38.757Z,11.68
2023-02-21T05:52:06.007Z,11.68
2023-02-21T05:54:33.124Z,11.60
2023-02-21T05:57:00.572Z,12.29
2023-02-21T05:59:27.753Z,12.04
2023-02-21T06:01:55.661Z,12.40
2023-02-21T06:04:23.361Z,12.81
2023-02-21T06:06:50.755Z,12.82
2023-02-21T06:09:18.963Z,12.50
2023-02-21T06:11:46.465Z,12.35
2023-02-21T06:14:14.973Z,12.42
2023-02-21T06:16:42.105Z,12.10
2023-02-21T06:19:10.161Z,12.17
2023-02-21T06:21:37.296Z,12.22
2023-02-21T06:24:04.577Z,11.96
2023-02-21T06:26:32.101Z,12.38
2023-02-21T06:28:59.242Z,12.54
2023-02-21T06:31:26.448Z,12.83
2023-02-21T06:33:53.926Z,12.73
2023-02-21T06:36:22.492Z,12.81
2023-02-21T06:38:52.875Z,12.79
2023-02-21T06:41:21.405Z,13.05
2023-02-21T06:43:49.615Z,13.07
2023-02-21T06:46:17.474Z,13.06
2023-02-21T06:48:45.324Z,13.25
2023-02-21T06:51:14.785Z,13.39
2023-02-21T06:53:42.296Z,13.52
2023-02-21T06:56:09.754Z,13.57
2023-02-21T06:58:36.951Z,13.87
2023-02-21T07:01:04.106Z,13.84
2023-02-21T07:03:31.581Z,14.14
2023-02-21T07:05:58.812Z,13.88
2023-02-21T07:08:26.497Z,14.24
2023-02-21T07:10:53.969Z,14.14
2023-02-21T07:13:22.579Z,14.32
2023-02-21T07:15:49.833Z,14.18
2023-02-21T07:18:17.333Z,14.29
2023-02-21T07:20:44.585Z,14.43
2023-02-21T07:23:11.737Z,14.18
2023-02-21T07:25:39.174Z,14.68
2023-02-21T07:28:06.333Z,14.65
2023-02-21T07:30:34.282Z,14.44
2023-02-21T07:33:01.765Z,15.33
2023-02-21T07:35:28.948Z,14.91
2023-02-21T07:37:56.069Z,14.77
2023-02-21T07:40:23.569Z,15.22
2023-02-21T07:42:50.729Z,14.80
2023-02-21T07:45:17.966Z,14.76
2023-02-21T07:47:47.904Z,14.86
2023-02-21T07:50:15.936Z,15.40
2023-02-21T07:52:43.088Z,15.70
2023-02-21T07:55:12.484Z,17.66
2023-02-21T07:57:40.059Z,18.08
2023-02-21T08:00:07.553Z,18.73
2023-02-21T08:02:40.123Z,18.60
2023-02-21T08:05:08.790Z,18.89
2023-02-21T08:07:36.003Z,19.57
2023-02-21T08:10:03.507Z,19.64
2023-02-21T08:12:30.930Z,19.23
2023-02-21T08:14:58.232Z,19.74
2023-02-21T08:17:25.588Z,18.48
2023-02-21T08:19:53.040Z,18.38
2023-02-21T08:22:20.192Z,19.12
2023-02-21T08:24:49.409Z,18.62
2023-02-21T08:27:17.394Z,19.11
2023-02-21T08:29:44.708Z,19.25
2023-02-21T08:32:12.008Z,19.48
2023-02-21T08:34:39.437Z,19.95
2023-02-21T08:37:14.563Z,19.54
2023-02-21T08:39:44.285Z,19.00
2023-02-21T08:42:11.804Z,18.83
2023-02-21T08:44:38.959Z,18.56
2023-02-21T08:47:06.422Z,19.35
2023-02-21T08:49:33.587Z,20.34
2023-02-21T08:52:00.722Z,18.42
2023-02-21T08:54:28.188Z,18.56
2023-02-21T08:56:55.460Z,18.81
2023-02-21T08:59:22.675Z,17.81
2023-02-21T09:01:50.192Z,18.75
2023-02-21T09:04:17.361Z,18.02
2023-02-21T09:06:44.540Z,18.63
2023-02-21T09:09:12.039Z,19.33
2023-02-21T09:11:39.370Z,19.26
2023-02-21T09:14:06.571Z,19.57
2023-02-21T09:16:34.109Z,19.04
2023-02-21T09:19:01.410Z,19.20
2023-02-21T09:21:28.686Z,18.81
2023-02-21T09:23:56.841Z,19.19
2023-02-21T09:26:24.130Z,19.37
2023-02-21T09:28:54.307Z,19.05
2023-02-21T09:31:21.833Z,19.16
2023-02-21T09:33:49.007Z,19.57
2023-02-21T09:36:16.341Z,19.29
2023-02-21T09:38:43.843Z,19.43
2023-02-21T09:41:11.981Z,19.38
2023-02-21T09:44:00.884Z,19.46
2023-02-21T09:46:28.333Z,20.00
2023-02-21T09:48:55.508Z,20.91
2023-02-21T09:51:22.690Z,20.68
2023-02-21T09:53:50.236Z,20.57
2023-02-21T09:56:21.931Z,20.40
2023-02-21T09:58:49.432Z,19.45
2023-02-21T10:01:26.012Z,19.83
2023-02-21T10:03:53.479Z,19.84
2023-02-21T10:06:23.754Z,19.08
2023-02-21T10:08:50.957Z,19.16
2023-02-21T10:11:22.970Z,20.07
2023-02-21T10:13:53.259Z,20.16
2023-02-21T10:16:21.711Z,19.73
2023-02-21T10:18:52.838Z,19.12
2023-02-21T10:21:30.733Z,19.01
2023-02-21T10:24:00.420Z,19.51
2023-02-21T10:26:28.423Z,19.67
2023-02-21T10:28:56.975Z,20.48
2023-02-21T10:31:45.473Z,20.27
2023-02-21T10:34:27.746Z,20.09
2023-02-21T10:36:55.420Z,20.27
2023-02-21T10:39:25.142Z,19.58
2023-02-21T10:41:52.327Z,20.12
2023-02-21T10:44:22.283Z,20.66
2023-02-21T10:47:01.695Z,19.88
2023-02-21T10:49:31.184Z,20.05
2023-02-21T10:52:05.502Z,19.47
2023-02-21T10:54:35.238Z,20.08
2023-02-21T10:57:03.106Z,19.88
2023-02-21T10:59:31.337Z,19.42
2023-02-21T11:01:58.844Z,19.63
2023-02-21T11:04:27.601Z,19.05
2023-02-21T11:07:08.846Z,19.12
2023-02-21T11:09:36.712Z,20.19
2023-02-21T11:12:15.755Z,18.88
2023-02-21T11:15:04.337Z,19.30
2023-02-21T11:17:34.458Z,19.43
2023-02-21T11:20:05.556Z,19.02
2023-02-21T11:22:42.913Z,18.35
2023-02-21T11:25:26.126Z,18.71
2023-02-21T11:28:03.798Z,18.75
2023-02-21T11:30:35.483Z,18.74
2023-02-21T11:33:04.783Z,18.66
2023-02-21T11:35:36.409Z,18.03
2023-02-21T11:38:07.707Z,18.52
2023-02-21T11:40:45.880Z,18.58
2023-02-21T11:43:24.490Z,18.54
2023-02-21T11:45:59.771Z,18.31
2023-02-21T11:48:31.321Z,18.34
2023-02-21T11:50:59.948Z,18.09
2023-02-21T11:53:36.436Z,18.05
2023-02-21T11:56:22.788Z,18.28
2023-02-21T11:58:52.965Z,18.37
2023-02-21T12:01:35.903Z,17.54
2023-02-21T12:04:42.366Z,17.77
2023-02-21T12:07:18.352Z,17.85
2023-02-21T12:09:52.516Z,17.84
2023-02-21T12:12:32.587Z,17.65
2023-02-21T12:15:06.308Z,17.50
2023-02-21T12:17:36.638Z,17.37
2023-02-21T12:20:22.693Z,17.72
2023-02-21T12:23:02.018Z,17.68
2023-02-21T12:25:31.700Z,17.41
2023-02-21T12:28:02.955Z,18.00
2023-02-21T12:30:56.470Z,18.62
2023-02-21T12:33:26.543Z,17.88
2023-02-21T12:35:54.147Z,18.25
2023-02-21T12:38:30.604Z,18.04
2023-02-21T12:41:21.183Z,17.80
2023-02-21T12:44:11.335Z,17.69
2023-02-21T12:46:40.588Z,17.05
2023-02-21T12:49:13.999Z,16.90
2023-02-21T12:51:42.755Z,17.02
2023-02-21T12:54:11.275Z,17.55
2023-02-21T12:56:40.971Z,16.86
2023-02-21T12:59:12.443Z,17.43
2023-02-21T13:01:44.476Z,17.46
2023-02-21T13:04:22.303Z,16.68
2023-02-21T13:06:49.497Z,17.36
2023-02-21T13:09:27.029Z,16.55
2023-02-21T13:12:03.402Z,16.39
2023-02-21T13:14:35.525Z,16.38
2023-02-21T13:17:02.928Z,16.61
2023-02-21T13:19:49.450Z,16.57
2023-02-21T13:22:54.321Z,16.64
2023-02-21T13:25:40.024Z,16.83
2023-02-21T13:28:11.390Z,16.67
2023-02-21T13:30:40.038Z,16.35
2023-02-21T13:33:07.816Z,16.56
2023-02-21T13:35:38.169Z,16.51
2023-02-21T13:38:06.914Z,16.15
2023-02-21T13:40:43.690Z,16.07
2023-02-21T13:43:15.825Z,16.06
2023-02-21T13:45:43.412Z,16.37
2023-02-21T13:48:17.117Z,16.09
2023-02-21T13:50:46.187Z,16.05
2023-02-21T13:53:20.730Z,16.02
2023-02-21T13:55:56.935Z,16.72
2023-02-21T13:58:28.830Z,16.74
2023-02-21T14:00:56.419Z,16.19
2023-02-21T14:03:23.831Z,16.73
2023-02-21T14:05:51.034Z,16.68
2023-02-21T14:08:30.279Z,16.40
2023-02-21T14:11:00.959Z,16.46
2023-02-21T14:13:34.957Z,16.40
2023-02-21T14:16:08.431Z,16.16
2023-02-21T14:18:38.628Z,16.15
2023-02-21T14:21:07.205Z,16.03
2023-02-21T14:23:42.093Z,15.78
2023-02-21T14:26:29.661Z,15.74
2023-02-21T14:28:56.817Z,15.93
2023-02-21T14:32:03.569Z,15.68
2023-02-21T14:34:42.693Z,16.46
2023-02-21T14:37:13.195Z,15.64
2023-02-21T14:39:41.701Z,15.30
2023-02-21T14:42:30.515Z,15.23
2023-02-21T14:45:10.112Z,15.60
2023-02-21T14:47:55.964Z,15.54
2023-02-21T14:50:33.979Z,15.39
2023-02-21T14:53:13.487Z,15.43
2023-02-21T14:55:49.910Z,15.48
2023-02-21T14:58:34.463Z,15.52
2023-02-21T15:01:34.457Z,15.49
2023-02-21T15:04:20.552Z,15.79
2023-02-21T15:07:00.190Z,15.79
2023-02-21T15:09:27.387Z,16.10
2023-02-21T15:11:56.580Z,15.60
2023-02-21T15:14:24.850Z,15.71
2023-02-21T15:16:58.878Z,16.35
2023-02-21T15:19:33.342Z,16.26
2023-02-21T15:22:14.973Z,15.70
2023-02-21T15:24:42.850Z,14.89
2023-02-21T15:27:13.695Z,15.43
2023-02-21T15:29:41.063Z,15.77
2023-02-21T15:32:10.826Z,15.41
2023-02-21T15:34:41.803Z,16.34
2023-02-21T15:37:21.435Z,15.71
2023-02-21T15:40:12.209Z,15.67
2023-02-21T15:42:40.443Z,16.35
2023-02-21T15:45:30.928Z,16.27
2023-02-21T15:47:58.808Z,15.96
2023-02-21T15:50:25.965Z,16.14
2023-02-21T15:52:53.578Z,15.85
2023-02-21T15:55:22.923Z,15.47
2023-02-21T15:58:00.399Z,15.57
2023-02-21T16:00:29.455Z,16.07
2023-02-21T16:03:15.449Z,15.48
2023-02-21T16:05:42.764Z,16.18
2023-02-21T16:08:11.944Z,15.95
2023-02-21T16:10:41.357Z,16.33
2023-02-21T16:13:08.612Z,16.06
2023-02-21T16:15:36.536Z,15.86
2023-02-21T16:18:05.300Z,16.26
2023-02-21T16:20:32.702Z,16.49
2023-02-21T16:23:18.724Z,16.89
2023-02-21T16:25:55.101Z,16.91
2023-02-21T16:28:22.778Z,16.92
2023-02-21T16:30:50.099Z,16.77
2023-02-21T16:33:17.423Z,16.79
2023-02-21T16:35:44.964Z,16.85
2023-02-21T16:38:16.418Z,16.70
2023-02-21T16:40:43.614Z,16.61
2023-02-21T16:43:24.005Z,16.62
2023-02-21T16:45:51.720Z,16.88
2023-02-21T16:48:21.640Z,16.93
2023-02-21T16:50:49.619Z,17.04
2023-02-21T16:53:17.276Z,17.09
2023-02-21T16:55:45.268Z,17.15
2023-02-21T16:58:19.434Z,16.92
2023-02-21T17:00:47.443Z,17.15
2023-02-21T17:03:14.744Z,17.29
2023-02-21T17:05:42.080Z,17.17
2023-02-21T17:08:09.666Z,17.35
2023-02-21T17:10:36.980Z,17.35
2023-02-21T17:13:04.256Z,17.38
2023-02-21T17:15:32.225Z,17.31
2023-02-21T17:17:59.898Z,17.43
2023-02-21T17:20:27.221Z,17.45
2023-02-21T17:22:54.923Z,17.45
2023-02-21T17:25:22.781Z,17.40
2023-02-21T17:27:50.133Z,17.44
2023-02-21T17:30:18.643Z,17.42
2023-02-21T17:32:47.078Z,17.35
2023-02-21T17:35:15.413Z,17.31
2023-02-21T17:37:43.233Z,17.23
2023-02-21T17:40:11.092Z,16.95
2023-02-21T17:42:38.650Z,17.13
2023-02-21T17:45:06.887Z,17.14
2023-02-21T17:47:35.456Z,16.86
2023-02-21T17:50:03.893Z,16.98
2023-02-21T17:52:31.614Z,17.00
2023-02-21T17:54:58.806Z,16.96
2023-02-21T17:57:26.213Z,16.87
2023-02-21T17:59:53.616Z,16.87
2023-02-21T18:02:21.006Z,16.77
2023-02-21T18:04:49.806Z,16.79
2023-02-21T18:07:20.258Z,16.71
2023-02-21T18:09:47.619Z,16.71
2023-02-21T18:12:16.416Z,16.71
2023-02-21T18:14:43.834Z,16.74
2023-02-21T18:17:11.235Z,16.75
2023-02-21T18:19:38.673Z,16.66
2023-02-21T18:22:06.498Z,16.64
2023-02-21T18:24:33.891Z,16.62
2023-02-21T18:27:01.459Z,16.60
2023-02-21T18:29:29.697Z,16.60
2023-02-21T18:31:56.950Z,16.58
2023-02-21T18:34:24.655Z,16.35
2023-02-21T18:36:53.322Z,16.43
2023-02-21T18:39:21.414Z,16.41
2023-02-21T18:41:49.025Z,16.13
2023-02-21T18:44:16.184Z,16.03
2023-02-21T18:46:50.429Z,16.07
2023-02-21T18:49:18.113Z,16.15
2023-02-21T18:51:45.490Z,15.60
2023-02-21T18:54:12.843Z,15.99
2023-02-21T18:56:45.089Z,16.07
2023-02-21T18:59:12.273Z,15.85
2023-02-21T19:01:39.942Z,15.74
2023-02-21T19:04:08.052Z,15.95
2023-02-21T19:06:35.428Z,16.00
2023-02-21T19:09:03.809Z,16.00
2023-02-21T19:11:31.377Z,15.95
2023-02-21T19:13:58.532Z,15.96
2023-02-21T19:16:26.562Z,16.00
2023-02-21T19:18:57.130Z,15.86
2023-02-21T19:21:24.966Z,15.64
2023-02-21T19:23:52.718Z,15.71
2023-02-21T19:26:21.109Z,15.64
2023-02-21T19:28:48.385Z,15.68
2023-02-21T19:31:19.993Z,15.68
2023-02-21T19:33:47.597Z,15.61
2023-02-21T19:36:15.024Z,15.47
2023-02-21T19:38:42.824Z,15.54
2023-02-21T19:41:10.211Z,15.57
2023-02-21T19:43:37.815Z,15.48
2023-02-21T19:46:05.746Z,15.35
2023-02-21T19:48:33.152Z,15.47
2023-02-21T19:51:00.570Z,15.50
2023-02-21T19:53:28.301Z,15.53
2023-02-21T19:55:55.667Z,15.49
2023-02-21T19:58:23.068Z,15.44
2023-02-21T20:00:50.847Z,15.55
2023-02-21T20:03:18.546Z,15.54
2023-02-21T20:05:45.880Z,15.16
2023-02-21T20:08:13.305Z,14.93
2023-02-21T20:10:41.024Z,15.11
2023-02-21T20:13:08.458Z,15.14
2023-02-21T20:15:35.999Z,14.95
2023-02-21T20:18:04.225Z,15.02
2023-02-21T20:20:31.638Z,15.06
2023-02-21T20:22:58.852Z,14.85
2023-02-21T20:25:26.485Z,14.86
2023-02-21T20:27:54.560Z,15.07
2023-02-21T20:30:23.966Z,15.11
2023-02-21T20:32:53.088Z,15.24
2023-02-21T20:35:20.459Z,15.18
2023-02-21T20:37:47.998Z,15.06
2023-02-21T20:40:15.995Z,15.14
2023-02-21T20:42:43.406Z,15.17
2023-02-21T20:45:10.947Z,15.21
2023-02-21T20:47:39.107Z,15.16
2023-02-21T20:50:07.448Z,15.11
2023-02-21T20:52:34.984Z,15.00
2023-02-21T20:55:03.320Z,14.77
2023-02-21T20:57:30.787Z,14.50
2023-02-21T20:59:58.006Z,14.56
2023-02-21T21:02:25.593Z,14.49
2023-02-21T21:04:54.417Z,14.34
2023-02-21T21:07:23.348Z,14.34
2023-02-21T21:09:50.957Z,14.34
2023-02-21T21:12:19.164Z,14.26
2023-02-21T21:14:48.716Z,14.51
2023-02-21T21:17:18.289Z,14.64
2023-02-21T21:19:46.541Z,14.87
2023-02-21T21:22:14.865Z,14.79
2023-02-21T21:24:42.262Z,14.74
2023-02-21T21:27:10.823Z,14.75
2023-02-21T21:29:38.921Z,14.78
2023-02-21T21:32:09.285Z,14.71
2023-02-21T21:34:38.983Z,14.76
2023-02-21T21:37:06.473Z,14.70
2023-02-21T21:39:37.395Z,14.45
2023-02-21T21:42:08.809Z,14.55
2023-02-21T21:44:40.066Z,14.34
2023-02-21T21:47:08.037Z,14.49
2023-02-21T21:49:36.817Z,14.22
2023-02-21T21:52:06.901Z,14.26
2023-02-21T21:54:37.797Z,14.36
2023-02-21T21:57:05.561Z,14.29
2023-02-21T21:59:33.010Z,14.13
2023-02-21T22:02:00.305Z,14.29
2023-02-21T22:04:27.790Z,14.33
2023-02-21T22:06:55.800Z,14.15
2023-02-21T22:09:23.073Z,14.03
2023-02-21T22:11:50.749Z,14.28
2023-02-21T22:14:18.459Z,14.23
2023-02-21T22:16:46.428Z,14.18
2023-02-21T22:19:14.063Z,14.23
2023-02-21T22:21:43.158Z,14.20
2023-02-21T22:24:11.492Z,13.71
2023-02-21T22:26:39.784Z,14.06
2023-02-21T22:29:07.314Z,12.99
2023-02-21T22:31:34.524Z,13.88
2023-02-21T22:34:02.378Z,13.68
2023-02-21T22:36:31.201Z,13.45
2023-02-21T22:38:58.461Z,13.95
2023-02-21T22:41:31.721Z,13.91
2023-02-21T22:43:58.880Z,13.96
2023-02-21T22:46:27.730Z,14.11
2023-02-21T22:48:55.208Z,14.40
2023-02-21T22:51:26.448Z,14.50
2023-02-21T22:53:54.089Z,14.39
2023-02-21T22:56:23.670Z,14.34
2023-02-21T22:58:51.272Z,13.75
2023-02-21T23:01:21.104Z,13.63
2023-02-21T23:03:48.302Z,13.64
2023-02-21T23:06:15.482Z,13.75
2023-02-21T23:08:45.460Z,13.96
2023-02-21T23:11:17.502Z,13.95
2023-02-21T23:13:46.510Z,13.66
2023-02-21T23:16:20.542Z,13.76
2023-02-21T23:18:48.323Z,13.74
2023-02-21T23:21:22.927Z,13.73
2023-02-21T23:23:50.651Z,13.54
2023-02-21T23:26:21.030Z,13.24
2023-02-21T23:28:49.325Z,13.11
2023-02-21T23:31:18.574Z,13.00
2023-02-21T23:33:48.812Z,13.24
2023-02-21T23:36:22.594Z,13.38
2023-02-21T23:38:50.510Z,13.17
2023-02-21T23:41:18.197Z,13.21
2023-02-21T23:43:48.746Z,13.39
2023-02-21T23:46:25.298Z,13.41
2023-02-21T23:48:53.779Z,13.39
2023-02-21T23:51:26.443Z,13.51
2023-02-21T23:53:54.057Z,13.57
2023-02-21T23:56:21.637Z,13.53
2023-02-21T23:58:50.099Z,13.42
